sensor_id;sensor_type;location;lat;lon;timestamp;pressure;altitude;pressure_sealevel;temperature;humidity
68320;BME280;55168;51.120;17.024;2023-06-01T00:00:00;100340;;;13.4;100.0
68320;BME280;55168;51.120;17.024;2023-06-01T00:01:00;100330;;;13.4;100.0
68320;BME280;55168;51.120;17.024;2023-06-01T00:02:00;100330;;;13.4;100.0
68320;BME280;55168;51.120;17.024;2023-06-01T00:03:00;100320;;;13.4;100.0
68320;BME280;55168;51.120;17.024;2023-06-01T00:04:00;100330;;;13.4;100.0
68320;BME280;55168;51.120;17.024;2023-06-01T00:05:00;100330;;;13.4;100.0
68320;BME280;55168;51.120;17.024;2023-06-01T00:06:00;100330;;;13.4;100.0
68320;BME280;55168;51.120;17.024;2023-06-01T00:07:00;100330;;;13.4;100.0
68320;BME280;55168;51.120;17.024;2023-06-01T00:08:00;100330;;;13.4;100.0
68320;BME280;55168;51.120;17.024;2023-06-01T00:09:00;100330;;;13.4;100.0
68320;BME280;55168;51.120;17.024;2023-06-01T00:10:00;100330;;;13.3;100.0
68320;BME280;55168;51.120;17.024;2023-06-01T00:11:00;100330;;;13.3;100.0
68320;BME280;55168;51.120;17.024;2023-06-01T00:12:00;100330;;;13.3;100.0
68320;BME280;55168;51.120;17.024;2023-06-01T00:13:00;100330;;;13.3;100.0
68320;BME280;55168;51.120;17.024;2023-06-01T00:14:00;100330;;;13.2;100.0
68320;BME280;55168;51.120;17.024;2023-06-01T00:15:00;100330;;;13.2;100.0
68320;BME280;55168;51.120;17.024;2023-06-01T00:16:00;100330;;;13.2;100.0
68320;BME280;55168;51.120;17.024;2023-06-01T00:17:00;100320;;;13.2;100.0
68320;BME280;55168;51.120;17.024;2023-06-01T00:18:00;100320;;;13.2;100.0
68320;BME280;55168;51.120;17.024;2023-06-01T00:19:00;100320;;;13.1;100.0
68320;BME280;55168;51.120;17.024;2023-06-01T00:20:00;100320;;;13.1;100.0
68320;BME280;55168;51.120;17.024;2023-06-01T00:21:00;100320;;;13.1;100.0
68320;BME280;55168;51.120;17.024;2023-06-01T00:22:00;100320;;;13.1;100.0
68320;BME280;55168;51.120;17.024;2023-06-01T00:23:00;100320;;;13.0;100.0
68320;BME280;55168;51.120;17.024;2023-06-01T00:24:00;100320;;;13.0;100.0
68320;BME280;55168;51.120;17.024;2023-06-01T00:25:00;100320;;;13.1;100.0
68320;BME280;55168;51.120;17.024;2023-06-01T00:26:00;100320;;;13.1;100.0
68320;BME280;55168;51.120;17.024;2023-06-01T00:27:00;100320;;;13.1;100.0
68320;BME280;55168;51.120;17.024;2023-06-01T00:28:00;100320;;;13.1;100.0
68320;BME280;55168;51.120;17.024;2023-06-01T00:29:00;100320;;;13.1;100.0
68320;BME280;55168;51.120;17.024;2023-06-01T00:30:00;100310;;;13.1;100.0
68320;BME280;55168;51.120;17.024;2023-06-01T00:31:00;100310;;;13.1;100.0
68320;BME280;55168;51.120;17.024;2023-06-01T00:32:00;100320;;;13.0;100.0
68320;BME280;55168;51.120;17.024;2023-06-01T00:33:00;100320;;;13.0;100.0
68320;BME280;55168;51.120;17.024;2023-06-01T00:34:00;100320;;;13.0;100.0
68320;BME280;55168;51.120;17.024;2023-06-01T00:35:00;100310;;;13.0;100.0
68320;BME280;55168;51.120;17.024;2023-06-01T00:36:00;100320;;;13.0;100.0
68320;BME280;55168;51.120;17.024;2023-06-01T00:37:00;100310;;;13.0;100.0
68320;BME280;55168;51.120;17.024;2023-06-01T00:38:00;100310;;;13.0;100.0
68320;BME280;55168;51.120;17.024;2023-06-01T00:39:00;100310;;;12.9;100.0
68320;BME280;55168;51.120;17.024;2023-06-01T00:40:00;100320;;;13.0;100.0
68320;BME280;55168;51.120;17.024;2023-06-01T00:41:00;100320;;;13.0;100.0
68320;BME280;55168;51.120;17.024;2023-06-01T00:42:00;100320;;;13.0;100.0
68320;BME280;55168;51.120;17.024;2023-06-01T00:43:00;100320;;;12.9;100.0
68320;BME280;55168;51.120;17.024;2023-06-01T00:44:00;100310;;;12.9;100.0
68320;BME280;55168;51.120;17.024;2023-06-01T00:45:00;100310;;;12.9;100.0
68320;BME280;55168;51.120;17.024;2023-06-01T00:46:00;100310;;;12.9;100.0
68320;BME280;55168;51.120;17.024;2023-06-01T00:47:00;100310;;;12.9;100.0
68320;BME280;55168;51.120;17.024;2023-06-01T00:48:00;100310;;;12.9;100.0
68320;BME280;55168;51.120;17.024;2023-06-01T00:49:00;100310;;;12.9;100.0
68320;BME280;55168;51.120;17.024;2023-06-01T00:50:00;100320;;;13.0;100.0
68320;BME280;55168;51.120;17.024;2023-06-01T00:51:00;100310;;;12.9;100.0
68320;BME280;55168;51.120;17.024;2023-06-01T00:52:00;100310;;;12.9;100.0
68320;BME280;55168;51.120;17.024;2023-06-01T00:53:00;100310;;;12.9;100.0
68320;BME280;55168;51.120;17.024;2023-06-01T00:54:00;100310;;;12.9;100.0
68320;BME280;55168;51.120;17.024;2023-06-01T00:55:00;100310;;;12.9;100.0
68320;BME280;55168;51.120;17.024;2023-06-01T00:56:00;100310;;;12.9;100.0
68320;BME280;55168;51.120;17.024;2023-06-01T00:57:00;100310;;;12.8;100.0
68320;BME280;55168;51.120;17.024;2023-06-01T00:58:00;100310;;;12.8;100.0
68320;BME280;55168;51.120;17.024;2023-06-01T00:59:00;100310;;;12.8;100.0
68320;BME280;55168;51.120;17.024;2023-06-01T01:00:01;100310;;;12.8;100.0
68320;BME280;55168;51.120;17.024;2023-06-01T01:01:00;100310;;;12.8;100.0
68320;BME280;55168;51.120;17.024;2023-06-01T01:02:00;100310;;;12.8;100.0
68320;BME280;55168;51.120;17.024;2023-06-01T01:03:00;100310;;;12.8;100.0
68320;BME280;55168;51.120;17.024;2023-06-01T01:04:00;100310;;;12.8;100.0
68320;BME280;55168;51.120;17.024;2023-06-01T01:05:00;100310;;;12.7;100.0
68320;BME280;55168;51.120;17.024;2023-06-01T01:06:05;100310;;;12.7;100.0
68320;BME280;55168;51.120;17.024;2023-06-01T01:08:18;100310;;;12.7;100.0
68320;BME280;55168;51.120;17.024;2023-06-01T01:10:05;100310;;;12.7;100.0
68320;BME280;55168;51.120;17.024;2023-06-01T01:11:04;100320;;;12.6;100.0
68320;BME280;55168;51.120;17.024;2023-06-01T01:12:02;100320;;;12.6;100.0
68320;BME280;55168;51.120;17.024;2023-06-01T01:14:05;100310;;;12.6;100.0
68320;BME280;55168;51.120;17.024;2023-06-01T01:15:04;100310;;;12.7;100.0
68320;BME280;55168;51.120;17.024;2023-06-01T01:17:02;100310;;;12.6;100.0
68320;BME280;55168;51.120;17.024;2023-06-01T01:18:05;100310;;;12.6;100.0
68320;BME280;55168;51.120;17.024;2023-06-01T01:19:03;100310;;;12.6;100.0
68320;BME280;55168;51.120;17.024;2023-06-01T01:20:02;100320;;;12.6;100.0
68320;BME280;55168;51.120;17.024;2023-06-01T01:21:01;100310;;;12.6;100.0
68320;BME280;55168;51.120;17.024;2023-06-01T01:22:07;100310;;;12.5;100.0
68320;BME280;55168;51.120;17.024;2023-06-01T01:24:05;100310;;;12.6;100.0
68320;BME280;55168;51.120;17.024;2023-06-01T01:29:00;100300;;;12.6;100.0
68320;BME280;55168;51.120;17.024;2023-06-01T01:30:01;100300;;;12.5;100.0
68320;BME280;55168;51.120;17.024;2023-06-01T01:31:01;100300;;;12.6;100.0
68320;BME280;55168;51.120;17.024;2023-06-01T01:32:00;100300;;;12.6;100.0
68320;BME280;55168;51.120;17.024;2023-06-01T01:33:00;100300;;;12.5;100.0
68320;BME280;55168;51.120;17.024;2023-06-01T01:34:01;100300;;;12.5;100.0
68320;BME280;55168;51.120;17.024;2023-06-01T01:35:00;100300;;;12.5;100.0
68320;BME280;55168;51.120;17.024;2023-06-01T01:36:00;100300;;;12.5;100.0
68320;BME280;55168;51.120;17.024;2023-06-01T01:37:01;100300;;;12.5;100.0
68320;BME280;55168;51.120;17.024;2023-06-01T01:38:00;100300;;;12.5;100.0
68320;BME280;55168;51.120;17.024;2023-06-01T01:39:00;100300;;;12.5;100.0
68320;BME280;55168;51.120;17.024;2023-06-01T01:40:00;100300;;;12.5;100.0
68320;BME280;55168;51.120;17.024;2023-06-01T01:41:00;100300;;;12.5;100.0
68320;BME280;55168;51.120;17.024;2023-06-01T01:42:00;100300;;;12.5;100.0
68320;BME280;55168;51.120;17.024;2023-06-01T01:43:00;100300;;;12.5;100.0
68320;BME280;55168;51.120;17.024;2023-06-01T01:44:00;100300;;;12.4;100.0
68320;BME280;55168;51.120;17.024;2023-06-01T01:45:00;100300;;;12.4;100.0
68320;BME280;55168;51.120;17.024;2023-06-01T01:47:05;100290;;;12.4;100.0
68320;BME280;55168;51.120;17.024;2023-06-01T01:48:05;100290;;;12.3;100.0
68320;BME280;55168;51.120;17.024;2023-06-01T01:50:03;100290;;;12.3;100.0
68320;BME280;55168;51.120;17.024;2023-06-01T01:51:01;100290;;;12.2;100.0
68320;BME280;55168;51.120;17.024;2023-06-01T01:52:17;100290;;;12.2;100.0
68320;BME280;55168;51.120;17.024;2023-06-01T01:53:00;100290;;;12.2;100.0
68320;BME280;55168;51.120;17.024;2023-06-01T01:54:00;100290;;;12.2;100.0
68320;BME280;55168;51.120;17.024;2023-06-01T01:55:01;100290;;;12.1;100.0
68320;BME280;55168;51.120;17.024;2023-06-01T01:56:00;100290;;;12.2;100.0
68320;BME280;55168;51.120;17.024;2023-06-01T01:57:00;100290;;;12.2;100.0
68320;BME280;55168;51.120;17.024;2023-06-01T01:58:00;100290;;;12.1;100.0
68320;BME280;55168;51.120;17.024;2023-06-01T01:59:00;100280;;;12.2;100.0
68320;BME280;55168;51.120;17.024;2023-06-01T02:00:01;100280;;;12.1;100.0
68320;BME280;55168;51.120;17.024;2023-06-01T02:01:00;100290;;;12.1;100.0
68320;BME280;55168;51.120;17.024;2023-06-01T02:02:00;100280;;;12.1;100.0
68320;BME280;55168;51.120;17.024;2023-06-01T02:03:00;100280;;;12.1;100.0
68320;BME280;55168;51.120;17.024;2023-06-01T02:04:02;100280;;;12.1;100.0
68320;BME280;55168;51.120;17.024;2023-06-01T02:05:00;100280;;;12.1;100.0
68320;BME280;55168;51.120;17.024;2023-06-01T02:06:00;100280;;;12.1;100.0
68320;BME280;55168;51.120;17.024;2023-06-01T02:07:00;100280;;;12.1;100.0
68320;BME280;55168;51.120;17.024;2023-06-01T02:08:00;100270;;;12.0;100.0
68320;BME280;55168;51.120;17.024;2023-06-01T02:09:00;100280;;;12.1;100.0
68320;BME280;55168;51.120;17.024;2023-06-01T02:10:00;100270;;;12.1;100.0
68320;BME280;55168;51.120;17.024;2023-06-01T02:11:00;100280;;;12.1;100.0
68320;BME280;55168;51.120;17.024;2023-06-01T02:12:00;100280;;;12.1;100.0
68320;BME280;55168;51.120;17.024;2023-06-01T02:13:00;100280;;;12.1;100.0
68320;BME280;55168;51.120;17.024;2023-06-01T02:14:00;100280;;;12.1;100.0
68320;BME280;55168;51.120;17.024;2023-06-01T02:15:00;100280;;;12.1;100.0
68320;BME280;55168;51.120;17.024;2023-06-01T02:16:00;100280;;;12.1;100.0
68320;BME280;55168;51.120;17.024;2023-06-01T02:17:00;100280;;;12.1;100.0
68320;BME280;55168;51.120;17.024;2023-06-01T02:18:00;100270;;;12.1;100.0
68320;BME280;55168;51.120;17.024;2023-06-01T02:19:00;100280;;;12.1;100.0
68320;BME280;55168;51.120;17.024;2023-06-01T02:20:01;100280;;;12.1;100.0
68320;BME280;55168;51.120;17.024;2023-06-01T02:21:00;100280;;;12.0;100.0
68320;BME280;55168;51.120;17.024;2023-06-01T02:22:00;100280;;;12.1;100.0
68320;BME280;55168;51.120;17.024;2023-06-01T02:23:00;100280;;;12.0;100.0
68320;BME280;55168;51.120;17.024;2023-06-01T02:24:00;100270;;;12.0;100.0
68320;BME280;55168;51.120;17.024;2023-06-01T02:25:00;100270;;;12.0;100.0
68320;BME280;55168;51.120;17.024;2023-06-01T02:26:00;100270;;;12.0;100.0
68320;BME280;55168;51.120;17.024;2023-06-01T02:27:00;100280;;;12.0;100.0
68320;BME280;55168;51.120;17.024;2023-06-01T02:28:00;100270;;;12.0;100.0
68320;BME280;55168;51.120;17.024;2023-06-01T02:29:00;100270;;;12.0;100.0
68320;BME280;55168;51.120;17.024;2023-06-01T02:30:00;100270;;;12.0;100.0
68320;BME280;55168;51.120;17.024;2023-06-01T02:31:00;100280;;;11.9;100.0
68320;BME280;55168;51.120;17.024;2023-06-01T02:32:00;100270;;;11.9;100.0
68320;BME280;55168;51.120;17.024;2023-06-01T02:33:00;100270;;;11.9;100.0
68320;BME280;55168;51.120;17.024;2023-06-01T02:34:00;100270;;;11.9;100.0
68320;BME280;55168;51.120;17.024;2023-06-01T02:35:00;100270;;;11.9;100.0
68320;BME280;55168;51.120;17.024;2023-06-01T02:36:00;100270;;;11.9;100.0
68320;BME280;55168;51.120;17.024;2023-06-01T02:37:00;100270;;;11.9;100.0
68320;BME280;55168;51.120;17.024;2023-06-01T02:38:00;100270;;;11.9;100.0
68320;BME280;55168;51.120;17.024;2023-06-01T02:39:00;100270;;;11.9;100.0
68320;BME280;55168;51.120;17.024;2023-06-01T02:40:00;100270;;;11.9;100.0
68320;BME280;55168;51.120;17.024;2023-06-01T02:41:00;100270;;;11.9;100.0
68320;BME280;55168;51.120;17.024;2023-06-01T02:42:00;100270;;;11.9;100.0
68320;BME280;55168;51.120;17.024;2023-06-01T02:43:00;100270;;;11.9;100.0
68320;BME280;55168;51.120;17.024;2023-06-01T02:44:00;100270;;;11.9;100.0
68320;BME280;55168;51.120;17.024;2023-06-01T02:45:00;100260;;;11.9;100.0
68320;BME280;55168;51.120;17.024;2023-06-01T02:46:00;100270;;;11.9;100.0
68320;BME280;55168;51.120;17.024;2023-06-01T02:47:00;100270;;;11.9;100.0
68320;BME280;55168;51.120;17.024;2023-06-01T02:48:00;100260;;;12.0;100.0
68320;BME280;55168;51.120;17.024;2023-06-01T02:49:00;100260;;;12.0;100.0
68320;BME280;55168;51.120;17.024;2023-06-01T02:54:00;100260;;;12.1;100.0
68320;BME280;55168;51.120;17.024;2023-06-01T02:55:00;100260;;;12.1;100.0
68320;BME280;55168;51.120;17.024;2023-06-01T02:56:00;100260;;;12.1;100.0
68320;BME280;55168;51.120;17.024;2023-06-01T02:57:00;100260;;;12.0;100.0
68320;BME280;55168;51.120;17.024;2023-06-01T02:58:00;100260;;;12.0;100.0
68320;BME280;55168;51.120;17.024;2023-06-01T02:59:00;100250;;;12.0;100.0
68320;BME280;55168;51.120;17.024;2023-06-01T03:00:00;100250;;;12.0;100.0
68320;BME280;55168;51.120;17.024;2023-06-01T03:01:00;100250;;;12.0;100.0
68320;BME280;55168;51.120;17.024;2023-06-01T03:02:00;100250;;;11.9;100.0
68320;BME280;55168;51.120;17.024;2023-06-01T03:03:00;100250;;;11.9;100.0
68320;BME280;55168;51.120;17.024;2023-06-01T03:04:01;100250;;;11.9;100.0
68320;BME280;55168;51.120;17.024;2023-06-01T03:05:00;100260;;;11.9;100.0
68320;BME280;55168;51.120;17.024;2023-06-01T03:06:00;100250;;;11.9;100.0
68320;BME280;55168;51.120;17.024;2023-06-01T03:07:00;100250;;;11.8;100.0
68320;BME280;55168;51.120;17.024;2023-06-01T03:08:00;100250;;;11.8;100.0
68320;BME280;55168;51.120;17.024;2023-06-01T03:09:00;100250;;;11.8;100.0
68320;BME280;55168;51.120;17.024;2023-06-01T03:10:00;100250;;;11.8;100.0
68320;BME280;55168;51.120;17.024;2023-06-01T03:11:00;100250;;;11.8;100.0
68320;BME280;55168;51.120;17.024;2023-06-01T03:12:00;100250;;;11.7;100.0
68320;BME280;55168;51.120;17.024;2023-06-01T03:13:00;100250;;;11.7;100.0
68320;BME280;55168;51.120;17.024;2023-06-01T03:14:00;100250;;;11.7;100.0
68320;BME280;55168;51.120;17.024;2023-06-01T03:15:00;100250;;;11.7;100.0
68320;BME280;55168;51.120;17.024;2023-06-01T03:16:00;100250;;;11.7;100.0
68320;BME280;55168;51.120;17.024;2023-06-01T03:17:00;100250;;;11.8;100.0
68320;BME280;55168;51.120;17.024;2023-06-01T03:18:00;100250;;;11.8;100.0
68320;BME280;55168;51.120;17.024;2023-06-01T03:19:00;100260;;;11.8;100.0
68320;BME280;55168;51.120;17.024;2023-06-01T03:20:00;100260;;;11.8;100.0
68320;BME280;55168;51.120;17.024;2023-06-01T03:21:00;100260;;;11.8;100.0
68320;BME280;55168;51.120;17.024;2023-06-01T03:22:00;100260;;;11.9;100.0
68320;BME280;55168;51.120;17.024;2023-06-01T03:23:00;100260;;;11.9;100.0
68320;BME280;55168;51.120;17.024;2023-06-01T03:24:00;100260;;;11.9;100.0
68320;BME280;55168;51.120;17.024;2023-06-01T03:25:00;100260;;;11.9;100.0
68320;BME280;55168;51.120;17.024;2023-06-01T03:26:00;100250;;;11.9;100.0
68320;BME280;55168;51.120;17.024;2023-06-01T03:27:00;100250;;;12.0;100.0
68320;BME280;55168;51.120;17.024;2023-06-01T03:28:00;100260;;;12.0;100.0
68320;BME280;55168;51.120;17.024;2023-06-01T03:29:00;100250;;;12.0;100.0
68320;BME280;55168;51.120;17.024;2023-06-01T03:30:00;100260;;;12.0;100.0
68320;BME280;55168;51.120;17.024;2023-06-01T03:31:00;100260;;;12.0;100.0
68320;BME280;55168;51.120;17.024;2023-06-01T03:32:00;100260;;;12.1;100.0
68320;BME280;55168;51.120;17.024;2023-06-01T03:33:00;100260;;;12.1;100.0
68320;BME280;55168;51.120;17.024;2023-06-01T03:34:01;100260;;;12.1;100.0
68320;BME280;55168;51.120;17.024;2023-06-01T03:35:00;100260;;;12.2;100.0
68320;BME280;55168;51.120;17.024;2023-06-01T03:36:00;100260;;;12.2;100.0
68320;BME280;55168;51.120;17.024;2023-06-01T03:37:00;100260;;;12.2;100.0
68320;BME280;55168;51.120;17.024;2023-06-01T03:38:00;100260;;;12.3;100.0
68320;BME280;55168;51.120;17.024;2023-06-01T03:39:00;100260;;;12.3;100.0
68320;BME280;55168;51.120;17.024;2023-06-01T03:40:00;100260;;;12.4;100.0
68320;BME280;55168;51.120;17.024;2023-06-01T03:41:00;100260;;;12.4;100.0
68320;BME280;55168;51.120;17.024;2023-06-01T03:42:00;100260;;;12.4;100.0
68320;BME280;55168;51.120;17.024;2023-06-01T03:43:00;100260;;;12.4;100.0
68320;BME280;55168;51.120;17.024;2023-06-01T03:44:00;100260;;;12.5;100.0
68320;BME280;55168;51.120;17.024;2023-06-01T03:45:00;100260;;;12.6;100.0
68320;BME280;55168;51.120;17.024;2023-06-01T03:46:00;100260;;;12.6;100.0
68320;BME280;55168;51.120;17.024;2023-06-01T03:47:00;100260;;;12.6;100.0
68320;BME280;55168;51.120;17.024;2023-06-01T03:48:00;100260;;;12.6;100.0
68320;BME280;55168;51.120;17.024;2023-06-01T03:49:00;100260;;;12.6;100.0
68320;BME280;55168;51.120;17.024;2023-06-01T03:50:00;100260;;;12.7;100.0
68320;BME280;55168;51.120;17.024;2023-06-01T03:51:00;100260;;;12.7;100.0
68320;BME280;55168;51.120;17.024;2023-06-01T03:52:00;100250;;;12.7;100.0
68320;BME280;55168;51.120;17.024;2023-06-01T03:53:00;100260;;;12.8;100.0
68320;BME280;55168;51.120;17.024;2023-06-01T03:54:00;100250;;;12.8;100.0
68320;BME280;55168;51.120;17.024;2023-06-01T03:55:00;100250;;;12.8;100.0
68320;BME280;55168;51.120;17.024;2023-06-01T03:56:00;100260;;;12.8;100.0
68320;BME280;55168;51.120;17.024;2023-06-01T03:57:00;100250;;;12.9;100.0
68320;BME280;55168;51.120;17.024;2023-06-01T03:58:00;100250;;;12.9;100.0
68320;BME280;55168;51.120;17.024;2023-06-01T03:59:00;100250;;;12.9;100.0
68320;BME280;55168;51.120;17.024;2023-06-01T04:00:00;100250;;;13.0;100.0
68320;BME280;55168;51.120;17.024;2023-06-01T04:01:00;100250;;;13.0;100.0
68320;BME280;55168;51.120;17.024;2023-06-01T04:02:00;100250;;;13.1;100.0
68320;BME280;55168;51.120;17.024;2023-06-01T04:03:00;100250;;;13.1;100.0
68320;BME280;55168;51.120;17.024;2023-06-01T04:04:00;100250;;;13.1;100.0
68320;BME280;55168;51.120;17.024;2023-06-01T04:05:00;100250;;;13.1;100.0
68320;BME280;55168;51.120;17.024;2023-06-01T04:06:00;100250;;;13.2;100.0
68320;BME280;55168;51.120;17.024;2023-06-01T04:07:00;100240;;;13.2;100.0
68320;BME280;55168;51.120;17.024;2023-06-01T04:08:00;100250;;;13.3;100.0
68320;BME280;55168;51.120;17.024;2023-06-01T04:09:01;100240;;;13.3;100.0
68320;BME280;55168;51.120;17.024;2023-06-01T04:10:00;100240;;;13.3;100.0
68320;BME280;55168;51.120;17.024;2023-06-01T04:11:00;100240;;;13.3;100.0
68320;BME280;55168;51.120;17.024;2023-06-01T04:12:00;100240;;;13.4;100.0
68320;BME280;55168;51.120;17.024;2023-06-01T04:13:00;100240;;;13.4;100.0
68320;BME280;55168;51.120;17.024;2023-06-01T04:14:00;100240;;;13.4;100.0
68320;BME280;55168;51.120;17.024;2023-06-01T04:15:00;100240;;;13.5;100.0
68320;BME280;55168;51.120;17.024;2023-06-01T04:16:00;100240;;;13.6;100.0
68320;BME280;55168;51.120;17.024;2023-06-01T04:17:00;100240;;;13.6;100.0
68320;BME280;55168;51.120;17.024;2023-06-01T04:18:00;100230;;;13.7;100.0
68320;BME280;55168;51.120;17.024;2023-06-01T04:19:00;100240;;;13.8;100.0
68320;BME280;55168;51.120;17.024;2023-06-01T04:20:00;100240;;;13.8;100.0
68320;BME280;55168;51.120;17.024;2023-06-01T04:21:00;100230;;;13.9;100.0
68320;BME280;55168;51.120;17.024;2023-06-01T04:22:00;100230;;;13.9;100.0
68320;BME280;55168;51.120;17.024;2023-06-01T04:23:00;100230;;;14.0;100.0
68320;BME280;55168;51.120;17.024;2023-06-01T04:24:00;100230;;;14.1;100.0
68320;BME280;55168;51.120;17.024;2023-06-01T04:25:00;100230;;;14.1;100.0
68320;BME280;55168;51.120;17.024;2023-06-01T04:26:00;100230;;;14.2;100.0
68320;BME280;55168;51.120;17.024;2023-06-01T04:27:00;100230;;;14.2;100.0
68320;BME280;55168;51.120;17.024;2023-06-01T04:28:00;100230;;;14.3;100.0
68320;BME280;55168;51.120;17.024;2023-06-01T04:29:00;100230;;;14.3;100.0
68320;BME280;55168;51.120;17.024;2023-06-01T04:30:00;100230;;;14.4;100.0
68320;BME280;55168;51.120;17.024;2023-06-01T04:31:00;100230;;;14.4;100.0
68320;BME280;55168;51.120;17.024;2023-06-01T04:32:00;100230;;;14.5;100.0
68320;BME280;55168;51.120;17.024;2023-06-01T04:33:00;100230;;;14.5;100.0
68320;BME280;55168;51.120;17.024;2023-06-01T04:34:00;100220;;;14.6;100.0
68320;BME280;55168;51.120;17.024;2023-06-01T04:35:01;100220;;;14.7;100.0
68320;BME280;55168;51.120;17.024;2023-06-01T04:36:00;100220;;;14.8;100.0
68320;BME280;55168;51.120;17.024;2023-06-01T04:37:00;100220;;;14.9;100.0
68320;BME280;55168;51.120;17.024;2023-06-01T04:38:01;100220;;;14.9;100.0
68320;BME280;55168;51.120;17.024;2023-06-01T04:39:00;100210;;;15.1;100.0
68320;BME280;55168;51.120;17.024;2023-06-01T04:40:01;100210;;;15.2;100.0
68320;BME280;55168;51.120;17.024;2023-06-01T04:41:00;100210;;;15.3;100.0
68320;BME280;55168;51.120;17.024;2023-06-01T04:42:00;100210;;;15.3;100.0
68320;BME280;55168;51.120;17.024;2023-06-01T04:43:00;100210;;;15.4;100.0
68320;BME280;55168;51.120;17.024;2023-06-01T04:44:00;100210;;;15.5;100.0
68320;BME280;55168;51.120;17.024;2023-06-01T04:45:00;100210;;;15.6;100.0
68320;BME280;55168;51.120;17.024;2023-06-01T04:46:00;100210;;;15.8;100.0
68320;BME280;55168;51.120;17.024;2023-06-01T04:47:00;100210;;;15.9;100.0
68320;BME280;55168;51.120;17.024;2023-06-01T04:48:00;100210;;;15.9;100.0
68320;BME280;55168;51.120;17.024;2023-06-01T04:49:00;100210;;;15.9;100.0
68320;BME280;55168;51.120;17.024;2023-06-01T04:50:00;100200;;;16.0;100.0
68320;BME280;55168;51.120;17.024;2023-06-01T04:51:00;100210;;;16.2;100.0
68320;BME280;55168;51.120;17.024;2023-06-01T04:52:00;100210;;;16.3;100.0
68320;BME280;55168;51.120;17.024;2023-06-01T04:53:00;100200;;;16.3;100.0
68320;BME280;55168;51.120;17.024;2023-06-01T04:54:00;100210;;;16.4;100.0
68320;BME280;55168;51.120;17.024;2023-06-01T04:55:01;100200;;;16.4;100.0
68320;BME280;55168;51.120;17.024;2023-06-01T04:56:00;100200;;;16.5;100.0
68320;BME280;55168;51.120;17.024;2023-06-01T04:57:00;100200;;;16.5;100.0
68320;BME280;55168;51.120;17.024;2023-06-01T04:58:00;100210;;;16.4;100.0
68320;BME280;55168;51.120;17.024;2023-06-01T04:59:00;100210;;;16.3;100.0
68320;BME280;55168;51.120;17.024;2023-06-01T05:00:00;100210;;;16.4;100.0
68320;BME280;55168;51.120;17.024;2023-06-01T05:01:00;100200;;;16.4;100.0
68320;BME280;55168;51.120;17.024;2023-06-01T05:02:00;100200;;;16.5;100.0
68320;BME280;55168;51.120;17.024;2023-06-01T05:03:00;100200;;;16.6;100.0
68320;BME280;55168;51.120;17.024;2023-06-01T05:04:00;100200;;;16.6;100.0
68320;BME280;55168;51.120;17.024;2023-06-01T05:05:00;100200;;;16.7;100.0
68320;BME280;55168;51.120;17.024;2023-06-01T05:06:00;100200;;;16.7;100.0
68320;BME280;55168;51.120;17.024;2023-06-01T05:07:00;100200;;;16.8;100.0
68320;BME280;55168;51.120;17.024;2023-06-01T05:08:00;100200;;;17.0;100.0
68320;BME280;55168;51.120;17.024;2023-06-01T05:09:00;100200;;;17.1;100.0
68320;BME280;55168;51.120;17.024;2023-06-01T05:10:00;100200;;;17.2;100.0
68320;BME280;55168;51.120;17.024;2023-06-01T05:11:00;100200;;;17.4;100.0
68320;BME280;55168;51.120;17.024;2023-06-01T05:12:00;100200;;;17.4;100.0
68320;BME280;55168;51.120;17.024;2023-06-01T05:13:00;100200;;;17.6;100.0
68320;BME280;55168;51.120;17.024;2023-06-01T05:14:00;100190;;;17.8;100.0
68320;BME280;55168;51.120;17.024;2023-06-01T05:15:02;100190;;;17.9;100.0
68320;BME280;55168;51.120;17.024;2023-06-01T05:16:00;100200;;;18.0;100.0
68320;BME280;55168;51.120;17.024;2023-06-01T05:17:00;100200;;;18.3;100.0
68320;BME280;55168;51.120;17.024;2023-06-01T05:18:00;100200;;;18.3;100.0
68320;BME280;55168;51.120;17.024;2023-06-01T05:19:00;100200;;;18.3;100.0
68320;BME280;55168;51.120;17.024;2023-06-01T05:20:00;100190;;;18.5;100.0
68320;BME280;55168;51.120;17.024;2023-06-01T05:21:00;100190;;;18.7;100.0
68320;BME280;55168;51.120;17.024;2023-06-01T05:22:00;100190;;;18.8;100.0
68320;BME280;55168;51.120;17.024;2023-06-01T05:23:00;100190;;;19.0;100.0
68320;BME280;55168;51.120;17.024;2023-06-01T05:24:00;100190;;;19.3;100.0
68320;BME280;55168;51.120;17.024;2023-06-01T05:25:00;100190;;;19.5;100.0
68320;BME280;55168;51.120;17.024;2023-06-01T05:26:00;100190;;;19.6;100.0
68320;BME280;55168;51.120;17.024;2023-06-01T05:27:00;100190;;;19.4;100.0
68320;BME280;55168;51.120;17.024;2023-06-01T05:28:00;100190;;;18.9;100.0
68320;BME280;55168;51.120;17.024;2023-06-01T05:29:00;100190;;;19.1;100.0
68320;BME280;55168;51.120;17.024;2023-06-01T05:30:00;100190;;;19.6;100.0
68320;BME280;55168;51.120;17.024;2023-06-01T05:31:00;100190;;;19.9;100.0
68320;BME280;55168;51.120;17.024;2023-06-01T05:32:00;100190;;;20.1;100.0
68320;BME280;55168;51.120;17.024;2023-06-01T05:33:00;100190;;;20.2;100.0
68320;BME280;55168;51.120;17.024;2023-06-01T05:34:00;100180;;;20.5;100.0
68320;BME280;55168;51.120;17.024;2023-06-01T05:35:00;100180;;;20.4;100.0
68320;BME280;55168;51.120;17.024;2023-06-01T05:36:00;100190;;;19.9;100.0
68320;BME280;55168;51.120;17.024;2023-06-01T05:37:00;100190;;;20.0;100.0
68320;BME280;55168;51.120;17.024;2023-06-01T05:38:00;100190;;;20.0;100.0
68320;BME280;55168;51.120;17.024;2023-06-01T05:39:00;100190;;;20.3;100.0
68320;BME280;55168;51.120;17.024;2023-06-01T05:40:00;100190;;;20.8;100.0
68320;BME280;55168;51.120;17.024;2023-06-01T05:41:00;100190;;;21.2;100.0